Terminal Aerodrome Forecast
Issued by NWS

Home | Current Version | Previous Version | Text Only | Print | Product List | Glossary On
Versions: 1 2 3 4 5 6 7 8 9 10 11 12 13
000
FTUS42 KTAE 011700 RRA
TAFVLD
TAF
KVLD 011748Z 0118/0218 17013G18KT P6SM SKC
     FM020400 17010KT 6SM RA OVC015
     FM021000 20008KT P6SM -SHRA OVC007
     FM021200 24008KT P6SM VCSH OVC007
     FM021400 30010KT P6SM BKN025
     FM021600 31011G17KT P6SM SCT050=

USA.gov is the U.S. government's official web portal to all federal, state and local government web resources and services.